Time;durP1;ratioP1;P1;durP2;ratioP2;P2;SDS_P1;SDS_P2;PMS_P1;PMS_P2;Temp;Humidity;BMP_temperature;BMP_pressure;BME280_temperature;BME280_humidity;BME280_pressure;Samples;Min_cycle;Max_cycle;Signal;HPM_P1;HPM_P2
2022/05/14 00:00:26;;;;;;;3.25;1.10;;;10.80;99.90;;;;;;4160204;28;20120;-43
2022/05/14 00:02:28;;;;;;;4.47;1.42;;;10.70;99.90;;;;;;4162696;28;20050;-43
2022/05/14 00:04:31;;;;;;;1.65;1.45;;;10.80;99.90;;;;;;4163163;28;20477;-43
2022/05/14 00:06:35;;;;;;;2.85;1.50;;;10.90;99.90;;;;;;4163463;28;20386;-44
2022/05/14 00:08:38;;;;;;;4.65;1.20;;;10.80;99.90;;;;;;4163430;28;20397;-44
2022/05/14 00:13:03;;;;;;;1.98;1.55;;;10.50;99.90;;;;;;4147213;28;20049;-43
2022/05/14 00:15:06;;;;;;;7.68;1.40;;;10.70;99.90;;;;;;4160372;28;20087;-43
2022/05/14 00:17:08;;;;;;;;;;;10.90;99.90;;;;;;4159732;28;20065;-44
2022/05/14 00:19:10;;;;;;;3.60;1.52;;;10.80;99.90;;;;;;4163324;28;19925;-43
2022/05/14 00:21:13;;;;;;;2.80;1.65;;;10.90;99.90;;;;;;4162803;28;20041;-42
2022/05/14 00:23:15;;;;;;;3.00;1.30;;;11.00;99.90;;;;;;4162938;28;20095;-44
2022/05/14 00:25:18;;;;;;;6.63;2.28;;;11.10;99.90;;;;;;4163148;28;20037;-43
2022/05/14 00:27:22;;;;;;;2.63;1.35;;;10.80;99.90;;;;;;4163357;28;20049;-43
2022/05/14 00:29:24;;;;;;;4.65;2.15;;;10.60;99.90;;;;;;4163158;28;20037;-44
2022/05/14 00:31:26;;;;;;;4.03;1.30;;;10.60;99.90;;;;;;4146671;28;20038;-44
2022/05/14 00:33:29;;;;;;;3.35;1.38;;;10.70;99.90;;;;;;4153506;28;20037;-43
2022/05/14 00:35:31;;;;;;;4.82;1.40;;;10.70;99.90;;;;;;4163250;28;20045;-44
2022/05/14 00:37:34;;;;;;;5.03;1.67;;;10.80;99.90;;;;;;4162855;28;20527;-44
2022/05/14 00:39:37;;;;;;;2.10;1.30;;;10.70;99.90;;;;;;4162442;28;20053;-43
2022/05/14 00:41:46;;;;;;;1.80;1.13;;;10.60;99.90;;;;;;4163002;28;20049;-42
2022/05/14 00:43:57;;;;;;;2.03;1.85;;;10.60;99.90;;;;;;4162462;28;20038;-43
2022/05/14 00:46:15;;;;;;;2.35;1.88;;;10.60;99.90;;;;;;4162896;28;20037;-44
2022/05/14 00:48:18;;;;;;;1.45;1.05;;;10.60;99.90;;;;;;4162575;28;20117;-44
2022/05/14 00:50:29;;;;;;;7.97;1.00;;;10.60;99.90;;;;;;4162739;28;20073;-44
2022/05/14 00:52:32;;;;;;;3.25;1.40;;;10.60;99.90;;;;;;4156243;28;20373;-44
2022/05/14 00:54:41;;;;;;;3.38;1.20;;;10.50;99.90;;;;;;4146378;28;20532;-43
2022/05/14 00:56:48;;;;;;;1.70;1.20;;;10.40;99.90;;;;;;4160909;28;20041;-44
2022/05/14 00:59:08;;;;;;;1.38;1.27;;;10.30;99.90;;;;;;4162071;28;20037;-45
2022/05/14 01:01:10;;;;;;;2.78;1.45;;;10.00;99.90;;;;;;4162692;28;20120;-43
2022/05/14 01:03:13;;;;;;;2.45;1.20;;;9.70;99.90;;;;;;4162484;28;20099;-43
2022/05/14 01:05:18;;;;;;;2.08;1.60;;;9.70;99.90;;;;;;4162440;28;20041;-43
2022/05/14 01:07:22;;;;;;;1.77;1.77;;;9.50;99.90;;;;;;4162833;28;20100;-43
2022/05/14 01:09:25;;;;;;;3.55;1.63;;;9.80;99.90;;;;;;4148392;28;20042;-44
2022/05/14 01:11:28;;;;;;;3.05;1.58;;;10.00;99.90;;;;;;4149866;28;20045;-44
2022/05/14 01:13:31;;;;;;;3.20;1.88;;;10.10;99.90;;;;;;4160705;28;20045;-43
2022/05/14 01:15:52;;;;;;;2.25;1.50;;;9.90;99.90;;;;;;4162280;28;20455;-43
2022/05/14 01:17:54;;;;;;;1.20;1.20;;;9.90;99.90;;;;;;4162116;28;20489;-43
2022/05/14 01:19:57;;;;;;;1.40;1.30;;;9.80;99.90;;;;;;4162021;28;20123;-43
2022/05/14 01:22:17;;;;;;;1.40;1.30;;;9.90;99.90;;;;;;4162213;28;20245;-43
2022/05/14 01:26:55;;;;;;;2.50;1.48;;;10.00;99.90;;;;;;4162332;28;20041;-43
2022/05/14 01:29:04;;;;;;;1.92;1.48;;;9.90;99.90;;;;;;4161917;28;20049;-44
2022/05/14 01:31:07;;;;;;;3.40;1.60;;;9.90;99.90;;;;;;4160716;28;20045;-43
2022/05/14 01:33:09;;;;;;;3.65;2.05;;;9.90;99.90;;;;;;4160968;28;20092;-43
2022/05/14 01:35:15;;;;;;;2.97;2.00;;;9.80;99.90;;;;;;4144518;28;20042;-43
2022/05/14 01:37:18;;;;;;;1.80;1.55;;;9.80;99.90;;;;;;4152879;28;20045;-43
2022/05/14 01:39:20;;;;;;;1.63;1.52;;;9.80;99.90;;;;;;4161794;28;20037;-43
2022/05/14 01:41:23;;;;;;;;;;;9.70;99.90;;;;;;4162221;28;20792;-43
2022/05/14 01:43:25;;;;;;;3.83;2.03;;;9.70;99.90;;;;;;4161880;28;20266;-43
2022/05/14 01:45:28;;;;;;;3.00;2.72;;;9.60;99.90;;;;;;4162133;28;20302;-44
2022/05/14 01:47:34;;;;;;;;;;;9.50;99.90;;;;;;4149564;28;20042;-43
2022/05/14 01:49:37;;;;;;;3.53;1.75;;;9.60;99.90;;;;;;4148793;28;19921;-43
2022/05/14 01:51:39;;;;;;;1.67;1.65;;;9.50;99.90;;;;;;4161552;28;20127;-43
2022/05/14 01:53:42;;;;;;;;;;;9.50;99.90;;;;;;4162195;28;20049;-42
2022/05/14 01:55:44;;;;;;;4.72;2.70;;;9.30;99.90;;;;;;4161663;28;20019;-43
2022/05/14 01:57:47;;;;;;;5.45;1.77;;;9.20;99.90;;;;;;4160490;28;20132;-43
2022/05/14 01:59:49;;;;;;;3.85;1.70;;;9.20;99.90;;;;;;4152853;28;20104;-44
2022/05/14 02:01:51;;;;;;;2.70;1.55;;;9.10;99.90;;;;;;4145303;28;20042;-43
2022/05/14 02:03:56;;;;;;;2.75;1.77;;;9.00;99.90;;;;;;4160975;28;20041;-43
2022/05/14 02:05:58;;;;;;;1.75;1.45;;;8.90;99.90;;;;;;4161447;28;20038;-44
2022/05/14 02:08:00;;;;;;;4.93;1.90;;;8.90;99.90;;;;;;4161603;28;20041;-44
2022/05/14 02:10:04;;;;;;;1.63;1.58;;;8.80;99.90;;;;;;4161578;28;20046;-44
2022/05/14 02:12:07;;;;;;;7.80;2.17;;;8.90;99.90;;;;;;4161033;28;20041;-43
2022/05/14 02:14:09;;;;;;;2.13;2.03;;;8.90;99.90;;;;;;4161601;28;20448;-43
2022/05/14 02:16:11;;;;;;;1.80;1.70;;;8.80;99.90;;;;;;4160293;28;20080;-43
2022/05/14 02:18:14;;;;;;;5.30;1.80;;;8.80;99.90;;;;;;4160615;28;20069;-43
2022/05/14 02:20:16;;;;;;;5.03;1.95;;;8.80;99.90;;;;;;4161399;28;20052;-43
2022/05/14 02:22:18;;;;;;;3.17;1.48;;;8.80;99.90;;;;;;4161130;28;20128;-43
2022/05/14 02:24:20;;;;;;;5.82;1.80;;;8.80;99.90;;;;;;4160281;28;20518;-43
2022/05/14 02:26:23;;;;;;;3.25;1.75;;;8.90;99.90;;;;;;4161361;28;20572;-44
2022/05/14 02:28:25;;;;;;;;;;;8.90;99.90;;;;;;4161761;28;20045;-43
2022/05/14 02:30:27;;;;;;;2.25;2.15;;;8.70;99.90;;;;;;4161310;28;19925;-42
2022/05/14 02:32:30;;;;;;;1.83;1.50;;;8.70;99.90;;;;;;4145922;28;20033;-43
2022/05/14 02:34:32;;;;;;;1.58;1.42;;;8.60;99.90;;;;;;4150741;28;20124;-43
2022/05/14 02:36:34;;;;;;;4.60;2.30;;;8.50;99.90;;;;;;4161358;28;20108;-43
2022/05/14 02:38:37;;;;;;;1.88;1.63;;;8.40;99.90;;;;;;4160842;28;20033;-44
2022/05/14 02:40:39;;;;;;;2.53;2.40;;;8.40;99.90;;;;;;4161139;28;20054;-43
2022/05/14 02:42:42;;;;;;;2.20;2.00;;;8.50;99.90;;;;;;4161269;28;20489;-43
2022/05/14 02:44:44;;;;;;;;;;;8.70;99.90;;;;;;4161397;28;20091;-43
2022/05/14 02:46:46;;;;;;;3.92;1.63;;;8.60;99.90;;;;;;4160576;28;19921;-43
2022/05/14 02:48:49;;;;;;;4.35;1.77;;;8.50;99.90;;;;;;4161116;28;20037;-43
2022/05/14 02:50:51;;;;;;;2.75;1.67;;;8.60;99.90;;;;;;4160416;28;20060;-44
2022/05/14 02:52:54;;;;;;;2.00;1.90;;;8.80;99.90;;;;;;4160923;28;20045;-43
2022/05/14 02:54:56;;;;;;;;;;;8.80;99.90;;;;;;4161437;28;20050;-43
2022/05/14 02:56:58;;;;;;;7.93;2.17;;;8.90;99.90;;;;;;4160482;28;19929;-43
2022/05/14 02:59:07;;;;;;;4.97;1.45;;;9.10;99.90;;;;;;4160804;28;20049;-44
2022/05/14 03:01:11;;;;;;;1.35;1.30;;;9.00;99.90;;;;;;4160746;28;20049;-43
2022/05/14 03:03:13;;;;;;;2.15;1.70;;;9.00;99.90;;;;;;4160617;28;20030;-43
2022/05/14 03:05:18;;;;;;;3.33;2.90;;;8.90;99.90;;;;;;4161058;28;20042;-44
2022/05/14 03:07:20;;;;;;;6.10;2.65;;;8.90;99.90;;;;;;4160241;28;20034;-44
2022/05/14 03:09:23;;;;;;;2.45;1.95;;;8.80;99.90;;;;;;4160646;28;20049;-43
2022/05/14 03:11:25;;;;;;;3.15;1.58;;;8.80;99.90;;;;;;4160286;28;20405;-43
2022/05/14 03:13:28;;;;;;;4.18;1.70;;;8.70;99.90;;;;;;4160522;28;20053;-42
2022/05/14 03:15:30;;;;;;;1.70;1.40;;;8.70;99.90;;;;;;4160527;28;20132;-43
2022/05/14 03:17:34;;;;;;;2.65;1.83;;;8.60;99.90;;;;;;4160256;28;20040;-43
2022/05/14 03:19:36;;;;;;;4.47;1.30;;;8.70;99.90;;;;;;4160530;28;20103;-43
2022/05/14 03:21:41;;;;;;;3.90;2.30;;;8.70;99.90;;;;;;4160368;28;20055;-44
2022/05/14 03:23:43;;;;;;;2.88;1.40;;;8.80;99.90;;;;;;4160679;28;20124;-43
2022/05/14 03:25:45;;;;;;;3.75;1.77;;;8.70;99.90;;;;;;4160328;28;20412;-44
2022/05/14 03:27:47;;;;;;;1.67;1.10;;;8.60;99.90;;;;;;4160672;28;20220;-44
2022/05/14 03:29:50;;;;;;;4.45;1.40;;;8.50;99.90;;;;;;4160343;28;20160;-44
2022/05/14 03:31:52;;;;;;;3.25;1.98;;;8.50;99.90;;;;;;4160452;28;20044;-43
2022/05/14 03:33:54;;;;;;;2.08;1.95;;;8.40;99.90;;;;;;4160846;28;20041;-43
2022/05/14 03:35:56;;;;;;;2.03;1.40;;;8.40;99.90;;;;;;4160310;28;20497;-43
2022/05/14 03:37:58;;;;;;;2.83;1.77;;;8.30;99.90;;;;;;4160407;28;20057;-42
2022/05/14 03:40:01;;;;;;;1.63;1.52;;;8.40;99.90;;;;;;4160279;28;20425;-43
2022/05/14 03:42:03;;;;;;;1.85;1.77;;;8.40;99.90;;;;;;4160320;28;20091;-43
2022/05/14 03:44:06;;;;;;;6.32;2.45;;;8.40;99.90;;;;;;4160170;28;20163;-43
2022/05/14 03:46:10;;;;;;;4.53;2.30;;;8.40;99.90;;;;;;4160193;28;20048;-43
2022/05/14 03:48:12;;;;;;;3.45;1.75;;;8.30;99.90;;;;;;4160190;28;20047;-43
2022/05/14 03:50:14;;;;;;;1.50;1.40;;;8.30;99.90;;;;;;4160347;28;20041;-44
2022/05/14 03:52:17;;;;;;;2.05;1.60;;;8.30;99.90;;;;;;4160152;28;20033;-43
2022/05/14 03:54:19;;;;;;;2.15;1.80;;;8.20;99.90;;;;;;4160272;28;20416;-43
2022/05/14 03:56:21;;;;;;;3.13;1.80;;;8.20;99.90;;;;;;4160217;28;20041;-44
2022/05/14 03:58:24;;;;;;;2.63;1.88;;;8.20;99.90;;;;;;4160257;28;20093;-43
2022/05/14 04:00:26;;;;;;;2.72;1.48;;;8.20;99.90;;;;;;4160236;28;20087;-42
2022/05/14 04:02:28;;;;;;;1.55;1.55;;;8.10;99.90;;;;;;4160068;28;20049;-43
2022/05/14 04:04:30;;;;;;;3.05;1.70;;;8.20;99.90;;;;;;4159964;28;20554;-44
2022/05/14 04:06:34;;;;;;;;;;;8.30;99.90;;;;;;4159486;28;20069;-42
2022/05/14 04:08:36;;;;;;;2.25;2.15;;;8.40;99.90;;;;;;4160415;28;19920;-43
2022/05/14 04:10:38;;;;;;;3.50;2.97;;;8.40;99.90;;;;;;4160001;28;20049;-43
2022/05/14 04:12:41;;;;;;;3.08;1.95;;;8.40;99.90;;;;;;4160097;28;20049;-43
2022/05/14 04:14:43;;;;;;;6.90;3.22;;;8.30;99.90;;;;;;4160207;28;20132;-44
2022/05/14 04:16:45;;;;;;;6.85;3.50;;;8.30;99.90;;;;;;4159914;28;20053;-43
2022/05/14 04:18:47;;;;;;;7.60;2.78;;;8.30;99.90;;;;;;4159672;28;20111;-43
2022/05/14 04:20:54;;;;;;;2.20;2.05;;;8.20;99.90;;;;;;4159895;28;20385;-43
2022/05/14 04:22:57;;;;;;;7.53;2.38;;;8.30;99.90;;;;;;4160010;28;20055;-43
2022/05/14 04:25:00;;;;;;;2.42;2.05;;;8.40;99.90;;;;;;4159921;28;20037;-42
2022/05/14 04:27:02;;;;;;;2.95;1.85;;;8.40;99.90;;;;;;4160411;28;20064;-42
2022/05/14 04:29:04;;;;;;;2.65;1.95;;;8.40;99.90;;;;;;4159872;28;20034;-43
2022/05/14 04:31:06;;;;;;;6.85;2.58;;;8.50;99.90;;;;;;4160160;28;20046;-43
2022/05/14 04:33:09;;;;;;;2.28;1.90;;;8.60;99.90;;;;;;4159735;28;20508;-43
2022/05/14 04:35:13;;;;;;;6.15;2.53;;;8.60;99.90;;;;;;4153510;28;20049;-43
2022/05/14 04:37:16;;;;;;;6.93;1.52;;;8.60;99.90;;;;;;4144079;28;20350;-43
2022/05/14 04:39:18;;;;;;;5.72;2.28;;;8.60;99.90;;;;;;4157073;28;20208;-42
2022/05/14 04:41:20;;;;;;;2.85;2.17;;;8.50;99.90;;;;;;4155694;28;20049;-42
2022/05/14 04:43:22;;;;;;;5.25;1.83;;;8.50;99.90;;;;;;4147289;28;20038;-43
2022/05/14 04:45:24;;;;;;;3.97;2.65;;;8.60;99.90;;;;;;4158980;28;20037;-42
2022/05/14 04:47:26;;;;;;;5.25;2.97;;;8.80;99.90;;;;;;4160676;28;20531;-43
2022/05/14 04:49:29;;;;;;;2.45;2.25;;;8.80;99.90;;;;;;4162634;28;20051;-45
2022/05/14 04:51:32;;;;;;;4.93;1.95;;;8.70;99.90;;;;;;4162683;28;20033;-44
2022/05/14 04:53:34;;;;;;;2.05;1.77;;;8.70;99.90;;;;;;4163048;28;20103;-43
2022/05/14 04:55:36;;;;;;;1.67;1.67;;;8.70;99.90;;;;;;4162933;28;20103;-42
2022/05/14 04:57:40;;;;;;;4.55;2.00;;;8.70;99.90;;;;;;4154190;28;20049;-42
2022/05/14 04:59:43;;;;;;;5.38;1.60;;;8.70;99.90;;;;;;4146378;28;20057;-43
2022/05/14 05:04:06;;;;;;;2.20;2.00;;;8.80;99.90;;;;;;4154102;28;20037;-43
2022/05/14 05:06:10;;;;;;;5.07;2.33;;;8.80;99.90;;;;;;4162872;28;20100;-43
2022/05/14 05:08:12;;;;;;;2.63;1.35;;;8.80;99.90;;;;;;4162183;28;20499;-43
2022/05/14 05:10:14;;;;;;;2.45;2.35;;;8.70;99.90;;;;;;4162477;28;20091;-43
2022/05/14 05:12:17;;;;;;;3.97;3.67;;;8.70;99.90;;;;;;4162430;28;20497;-43
2022/05/14 05:14:19;;;;;;;3.55;2.25;;;8.70;99.90;;;;;;4162123;28;20049;-42
2022/05/14 05:16:21;;;;;;;2.65;1.58;;;8.80;99.90;;;;;;4162382;28;20416;-42
2022/05/14 05:18:24;;;;;;;2.95;2.78;;;8.90;99.90;;;;;;4161986;28;20052;-43
2022/05/14 05:20:26;;;;;;;;;;;8.90;99.90;;;;;;4151278;28;20050;-43
2022/05/14 05:22:28;;;;;;;2.03;1.73;;;8.90;99.90;;;;;;4147583;28;20399;-43
2022/05/14 05:24:30;;;;;;;2.10;2.00;;;9.00;99.90;;;;;;4159397;28;20041;-43
2022/05/14 05:26:33;;;;;;;2.72;2.22;;;9.00;99.90;;;;;;4158876;28;20041;-43
2022/05/14 05:28:37;;;;;;;2.28;1.75;;;9.10;99.90;;;;;;4162166;28;20041;-43
2022/05/14 05:30:39;;;;;;;6.05;1.80;;;9.10;99.90;;;;;;4145641;28;20046;-43
2022/05/14 05:32:42;;;;;;;6.97;2.05;;;9.20;99.90;;;;;;4152434;28;20120;-44
2022/05/14 05:34:44;;;;;;;3.75;2.33;;;9.40;99.90;;;;;;4160896;28;20107;-46
2022/05/14 05:36:46;;;;;;;3.00;2.78;;;9.60;99.90;;;;;;4161502;28;20071;-44
2022/05/14 05:38:48;;;;;;;2.33;2.22;;;9.70;99.90;;;;;;4161693;28;20037;-45
2022/05/14 05:40:52;;;;;;;2.33;1.90;;;9.90;99.90;;;;;;4152589;28;20054;-44
2022/05/14 05:42:54;;;;;;;4.90;1.85;;;10.00;99.90;;;;;;4157523;28;20045;-45
2022/05/14 05:44:56;;;;;;;4.20;2.17;;;10.30;99.90;;;;;;4161615;28;20749;-45
2022/05/14 05:46:58;;;;;;;3.22;1.67;;;10.30;99.90;;;;;;4161806;28;20090;-45
2022/05/14 05:49:00;;;;;;;3.63;1.50;;;10.40;99.90;;;;;;4161839;28;20041;-49
2022/05/14 05:51:03;;;;;;;3.17;1.70;;;10.50;99.90;;;;;;4161686;28;20045;-45
2022/05/14 05:53:06;;;;;;;2.58;1.58;;;10.70;99.90;;;;;;4162019;28;20576;-45
2022/05/14 05:57:39;;;;;;;2.53;1.42;;;11.10;99.90;;;;;;4161429;28;20037;-45
2022/05/14 05:59:41;;;;;;;3.63;1.70;;;11.40;99.90;;;;;;4160106;28;20053;-46
2022/05/14 06:01:44;;;;;;;6.50;1.92;;;11.60;99.90;;;;;;4161743;28;20041;-45
2022/05/14 06:03:48;;;;;;;3.20;1.52;;;11.80;99.90;;;;;;4161536;28;20598;-48
2022/05/14 06:05:51;;;;;;;3.58;1.30;;;12.00;99.90;;;;;;4161650;28;20129;-47
2022/05/14 06:07:54;;;;;;;1.65;1.55;;;12.30;99.90;;;;;;4161681;28;20045;-45
2022/05/14 06:09:56;;;;;;;1.77;1.10;;;12.50;99.90;;;;;;4161569;28;20045;-47
2022/05/14 06:11:58;;;;;;;1.33;1.00;;;12.70;99.90;;;;;;4161798;28;20037;-45
2022/05/14 06:14:00;;;;;;;2.50;1.30;;;12.90;99.90;;;;;;4161399;28;20072;-46
2022/05/14 06:16:03;;;;;;;5.07;1.30;;;13.10;99.90;;;;;;4161382;28;20103;-46
2022/05/14 06:18:05;;;;;;;;;;;13.40;99.90;;;;;;4161573;28;20132;-46
2022/05/14 06:20:13;;;;;;;1.20;1.10;;;13.50;99.90;;;;;;4161060;28;19975;-47
2022/05/14 06:22:15;;;;;;;3.53;1.25;;;13.60;99.90;;;;;;4161196;28;20049;-45
2022/05/14 06:24:17;;;;;;;4.75;1.92;;;13.80;99.90;;;;;;4161126;28;20652;-46
2022/05/14 06:26:19;;;;;;;3.55;1.45;;;13.90;99.90;;;;;;4158922;28;20041;-47
2022/05/14 06:28:21;;;;;;;1.80;1.10;;;14.10;99.90;;;;;;4145022;28;20041;-45
2022/05/14 06:30:23;;;;;;;2.22;1.50;;;14.00;99.90;;;;;;4144505;28;20042;-46
2022/05/14 06:32:25;;;;;;;1.40;1.30;;;14.20;99.90;;;;;;4145199;28;20120;-46
2022/05/14 06:34:27;;;;;;;5.10;1.65;;;14.50;99.90;;;;;;4160353;28;20584;-45
2022/05/14 06:36:30;;;;;;;2.75;1.00;;;14.80;99.90;;;;;;4160807;28;20457;-46
2022/05/14 06:38:33;;;;;;;3.20;1.35;;;15.20;99.90;;;;;;4156525;28;20391;-47
2022/05/14 06:40:36;;;;;;;3.92;1.20;;;15.40;99.90;;;;;;4151521;28;20050;-45
2022/05/14 06:42:38;;;;;;;5.15;1.20;;;15.60;99.90;;;;;;4160890;28;20051;-45
2022/05/14 06:44:40;;;;;;;5.18;1.02;;;15.70;99.90;;;;;;4160811;28;20674;-45
2022/05/14 06:46:43;;;;;;;5.50;1.20;;;16.00;99.90;;;;;;4148765;28;20042;-46
2022/05/14 06:48:45;;;;;;;2.60;1.00;;;16.30;99.90;;;;;;4160564;28;20030;-46
2022/05/14 06:50:50;;;;;;;3.22;1.00;;;16.50;99.90;;;;;;4159224;28;20037;-46
2022/05/14 06:53:01;;;;;;;2.90;1.08;;;16.70;99.90;;;;;;4158827;28;20493;-46
2022/05/14 06:55:05;;;;;;;2.25;0.90;;;16.90;99.90;;;;;;4154144;28;20048;-47
2022/05/14 06:57:07;;;;;;;4.20;0.90;;;17.20;99.90;;;;;;4160407;28;20505;-46
2022/05/14 06:59:11;;;;;;;1.17;0.77;;;17.20;99.90;;;;;;4160061;28;20409;-46
2022/05/14 07:01:13;;;;;;;6.30;1.40;;;17.40;99.90;;;;;;4155466;28;20033;-47
2022/05/14 07:07:56;;;;;;;3.67;1.15;;;17.70;99.90;;;;;;4155432;28;20420;-46
2022/05/14 07:09:59;;;;;;;3.25;1.00;;;17.90;99.90;;;;;;4160087;28;20551;-49
2022/05/14 07:12:09;;;;;;;2.88;0.90;;;18.10;99.90;;;;;;4159018;28;20045;-47
2022/05/14 07:14:16;;;;;;;4.72;0.90;;;18.40;99.90;;;;;;4160428;28;20421;-46
2022/05/14 07:16:18;;;;;;;0.80;0.80;;;19.00;99.90;;;;;;4160408;28;20525;-46
2022/05/14 07:18:21;;;;;;;2.22;0.85;;;19.30;99.90;;;;;;4158802;28;20449;-45
2022/05/14 07:20:24;;;;;;;1.80;0.80;;;19.50;99.90;;;;;;4159406;28;20045;-46
2022/05/14 07:22:26;;;;;;;2.95;0.80;;;19.30;99.90;;;;;;4160132;28;20397;-45
2022/05/14 07:24:29;;;;;;;;;;;19.30;99.90;;;;;;4155413;28;20429;-45
2022/05/14 07:26:31;;;;;;;1.42;1.10;;;19.80;99.90;;;;;;4143882;28;19940;-46
2022/05/14 07:28:34;;;;;;;2.17;1.02;;;20.00;99.90;;;;;;4159314;28;20041;-46
2022/05/14 07:30:36;;;;;;;3.63;1.50;;;20.20;99.90;;;;;;4159850;28;20119;-45
2022/05/14 07:32:38;;;;;;;5.70;0.95;;;20.20;99.90;;;;;;4160651;28;20041;-46
2022/05/14 07:34:41;;;;;;;1.20;0.77;;;20.30;99.90;;;;;;4160009;28;20073;-46
2022/05/14 07:36:49;;;;;;;2.28;0.80;;;20.40;99.90;;;;;;4159947;28;20060;-46
2022/05/14 07:38:54;;;;;;;3.17;0.85;;;20.40;99.40;;;;;;4160277;28;20525;-45
2022/05/14 07:40:57;;;;;;;8.05;1.08;;;20.30;99.10;;;;;;4158799;28;20160;-47
2022/05/14 07:43:10;;;;;;;3.25;0.80;;;20.00;97.50;;;;;;4159987;28;20103;-45
2022/05/14 07:45:18;;;;;;;2.47;0.80;;;20.20;97.80;;;;;;4160208;28;20436;-47
2022/05/14 07:47:21;;;;;;;5.63;0.80;;;20.20;98.20;;;;;;4160024;28;20037;-46
2022/05/14 07:49:25;;;;;;;4.35;0.80;;;20.50;98.50;;;;;;4160121;28;20523;-47
2022/05/14 07:51:28;;;;;;;1.67;0.80;;;20.20;97.90;;;;;;4159965;28;20074;-46
2022/05/14 07:53:31;;;;;;;7.60;1.58;;;20.00;99.00;;;;;;4160148;28;20073;-46
2022/05/14 07:55:34;;;;;;;1.80;0.70;;;20.60;99.70;;;;;;4158456;28;20104;-47
2022/05/14 07:57:37;;;;;;;1.75;0.68;;;21.00;99.70;;;;;;4143906;28;20108;-47
2022/05/14 07:59:39;;;;;;;;;;;21.50;98.70;;;;;;4144260;28;20045;-46
2022/05/14 08:01:42;;;;;;;1.30;0.80;;;22.10;98.10;;;;;;4143681;28;20150;-45
2022/05/14 08:03:47;;;;;;;4.00;0.60;;;22.30;96.70;;;;;;4159895;28;20111;-45
2022/05/14 08:05:57;;;;;;;5.85;1.70;;;22.50;97.30;;;;;;4159776;28;20097;-46
2022/05/14 08:07:59;;;;;;;29.17;13.82;;;21.90;96.30;;;;;;4159896;28;20100;-48
2022/05/14 08:10:03;;;;;;;354.77;203.65;;;21.70;96.30;;;;;;4160246;28;20134;-47
2022/05/14 08:12:06;;;;;;;30.95;18.25;;;21.90;96.70;;;;;;4159891;28;20048;-46
2022/05/14 08:14:08;;;;;;;6.45;3.50;;;21.90;97.80;;;;;;4160063;28;20045;-45
2022/05/14 08:16:10;;;;;;;68.32;39.90;;;22.10;95.50;;;;;;4159664;28;20046;-47
2022/05/14 08:18:13;;;;;;;4.47;2.13;;;22.70;95.30;;;;;;4159553;28;20033;-46
2022/05/14 08:20:16;;;;;;;2.40;0.88;;;22.70;96.10;;;;;;4158522;28;20509;-45
2022/05/14 08:24:39;;;;;;;2.28;0.60;;;22.70;96.50;;;;;;4162984;28;20073;-46
2022/05/14 08:26:41;;;;;;;2.20;0.68;;;23.00;95.20;;;;;;4163185;28;20585;-45
2022/05/14 08:28:43;;;;;;;0.85;0.75;;;23.40;94.00;;;;;;4162740;28;20088;-49
2022/05/14 08:30:48;;;;;;;1.23;0.70;;;23.60;92.70;;;;;;4162918;28;20042;-48
2022/05/14 08:32:51;;;;;;;1.65;0.60;;;22.90;91.80;;;;;;4163094;28;20424;-46
2022/05/14 08:34:53;;;;;;;2.72;0.98;;;22.30;92.80;;;;;;4162757;28;20037;-45
2022/05/14 08:36:56;;;;;;;;;;;22.50;92.30;;;;;;4162882;28;20072;-47
2022/05/14 08:38:58;;;;;;;4.88;0.65;;;22.50;92.00;;;;;;4162963;28;19925;-46
2022/05/14 08:41:01;;;;;;;1.45;0.60;;;22.30;91.80;;;;;;4162199;28;20061;-46
2022/05/14 08:43:08;;;;;;;3.72;0.70;;;22.30;92.90;;;;;;4162841;28;20378;-45
2022/05/14 08:45:12;;;;;;;2.45;0.60;;;22.60;93.70;;;;;;4160335;28;20125;-45
2022/05/14 08:47:36;;;;;;;2.17;0.70;;;22.40;90.60;;;;;;4160404;28;20034;-46
2022/05/14 08:49:45;;;;;;;5.95;0.95;;;22.80;90.70;;;;;;4160732;28;20091;-46
2022/05/14 08:51:51;;;;;;;2.15;0.88;;;23.00;91.10;;;;;;4161912;28;20049;-47
2022/05/14 08:53:54;;;;;;;1.95;0.70;;;23.10;91.20;;;;;;4161388;28;20064;-48
2022/05/14 08:56:21;;;;;;;5.25;0.90;;;22.80;89.90;;;;;;4162556;28;20042;-47
2022/05/14 08:58:45;;;;;;;2.38;0.90;;;22.80;90.50;;;;;;4146381;28;20053;-45
2022/05/14 09:00:47;;;;;;;2.72;0.70;;;22.90;89.50;;;;;;4158983;28;20532;-46
2022/05/14 09:02:51;;;;;;;1.17;0.70;;;22.90;91.10;;;;;;4160994;28;20041;-47
2022/05/14 09:05:19;;;;;;;2.97;1.08;;;23.00;91.30;;;;;;4161102;28;20042;-46
2022/05/14 09:07:21;;;;;;;0.85;0.70;;;23.50;91.80;;;;;;4159787;28;20049;-46
2022/05/14 09:09:23;;;;;;;1.23;0.68;;;23.70;90.60;;;;;;4162159;28;20541;-45
2022/05/14 09:11:38;;;;;;;2.28;0.63;;;23.50;91.10;;;;;;4162240;28;20064;-46
2022/05/14 09:13:44;;;;;;;1.83;1.00;;;23.30;92.80;;;;;;4148085;28;20084;-47
2022/05/14 09:15:56;;;;;;;1.80;0.70;;;23.20;92.70;;;;;;4151035;28;20065;-46
2022/05/14 09:18:04;;;;;;;4.72;0.73;;;23.10;92.60;;;;;;4161937;28;20045;-45
2022/05/14 09:20:07;;;;;;;2.65;0.70;;;23.30;92.90;;;;;;4162102;28;20053;-49
2022/05/14 09:22:11;;;;;;;1.48;0.70;;;22.90;92.40;;;;;;4158351;28;20120;-47
2022/05/14 09:24:25;;;;;;;1.65;1.08;;;23.30;91.60;;;;;;4160212;28;20048;-48
2022/05/14 09:26:33;;;;;;;2.55;0.90;;;23.60;92.30;;;;;;4159232;28;20033;-45
2022/05/14 09:28:43;;;;;;;1.45;0.73;;;23.60;92.20;;;;;;4157684;28;20065;-47
2022/05/14 09:30:53;;;;;;;2.35;0.60;;;23.80;91.20;;;;;;4152895;28;20073;-47
2022/05/14 09:32:57;;;;;;;0.75;0.60;;;23.90;90.90;;;;;;4158769;28;20041;-47
2022/05/14 09:35:07;;;;;;;2.03;0.63;;;23.90;91.80;;;;;;4160741;28;20072;-48
2022/05/14 09:37:29;;;;;;;3.55;1.25;;;24.10;91.00;;;;;;4161636;28;20037;-45
2022/05/14 09:39:32;;;;;;;1.60;0.82;;;23.90;90.80;;;;;;4159499;28;20508;-47
2022/05/14 09:41:42;;;;;;;1.63;0.60;;;23.80;91.40;;;;;;4149281;28;20052;-46
2022/05/14 09:43:45;;;;;;;3.17;0.77;;;23.70;90.30;;;;;;4151276;28;20037;-49
2022/05/14 09:46:03;;;;;;;2.13;0.70;;;24.10;92.30;;;;;;4161616;28;20127;-47
2022/05/14 09:48:18;;;;;;;6.07;0.70;;;24.80;91.70;;;;;;4150933;28;20063;-47
2022/05/14 09:50:32;;;;;;;5.22;0.70;;;25.10;90.70;;;;;;4156552;28;20382;-46
2022/05/14 09:52:36;;;;;;;1.90;1.25;;;24.40;89.30;;;;;;4155534;28;20030;-46
2022/05/14 09:54:47;;;;;;;1.73;0.60;;;24.00;90.90;;;;;;4155011;28;20048;-47
2022/05/14 09:57:12;;;;;;;4.50;0.60;;;24.30;90.50;;;;;;4157379;28;20056;-47
2022/05/14 09:59:35;;;;;;;3.60;0.70;;;24.40;89.90;;;;;;4157594;28;20057;-48
2022/05/14 10:01:46;;;;;;;1.02;0.57;;;24.70;90.90;;;;;;4156731;28;20571;-48
2022/05/14 10:04:22;;;;;;;0.98;0.68;;;24.80;88.40;;;;;;4158989;28;20045;-48
2022/05/14 10:06:45;;;;;;;1.02;0.77;;;25.10;90.80;;;;;;4159799;28;20041;-46
2022/05/14 10:09:15;;;;;;;0.70;0.65;;;24.40;86.70;;;;;;4154424;28;20516;-47
2022/05/14 10:11:23;;;;;;;2.95;0.70;;;24.60;87.60;;;;;;4154334;28;20123;-47
2022/05/14 10:13:46;;;;;;;0.50;0.50;;;24.80;88.30;;;;;;4151458;28;20052;-47
2022/05/14 10:16:28;;;;;;;3.60;0.68;;;24.80;88.10;;;;;;4156967;28;20048;-46
2022/05/14 10:18:58;;;;;;;1.75;0.68;;;25.00;90.40;;;;;;4155955;28;20060;-47
2022/05/14 10:21:17;;;;;;;2.50;0.70;;;24.80;86.40;;;;;;4152754;28;20042;-48
2022/05/14 10:28:44;;;;;;;1.33;0.60;;;24.00;88.20;;;;;;4152532;28;20515;-46
2022/05/14 10:31:02;;;;;;;0.68;0.60;;;24.80;89.60;;;;;;4149690;28;20046;-47
2022/05/14 10:33:09;;;;;;;3.55;0.60;;;24.80;88.00;;;;;;4152006;28;20494;-45
2022/05/14 10:35:27;;;;;;;1.83;0.60;;;24.90;87.80;;;;;;4161398;28;20124;-44
2022/05/14 10:37:35;;;;;;;4.45;0.70;;;24.80;87.60;;;;;;4151892;28;20050;-44
2022/05/14 10:39:46;;;;;;;1.75;0.60;;;24.50;88.00;;;;;;4158482;28;20054;-44
2022/05/14 10:41:57;;;;;;;4.03;0.50;;;25.00;87.60;;;;;;4159646;28;20045;-43
2022/05/14 10:44:17;;;;;;;1.80;0.52;;;25.40;88.00;;;;;;4156880;28;20045;-44
2022/05/14 10:46:22;;;;;;;3.05;0.60;;;25.40;87.50;;;;;;4156124;28;20041;-44
2022/05/14 10:48:58;;;;;;;2.28;0.90;;;25.70;90.40;;;;;;4152375;28;20076;-44
2022/05/14 10:51:02;;;;;;;2.20;0.60;;;26.00;87.10;;;;;;4153448;28;20045;-45
2022/05/14 10:53:08;;;;;;;3.28;0.95;;;25.20;90.50;;;;;;4151879;28;20138;-45
2022/05/14 10:55:20;;;;;;;1.52;0.60;;;25.20;88.20;;;;;;4152863;28;20052;-45
2022/05/14 10:57:33;;;;;;;1.73;0.60;;;24.80;88.20;;;;;;4149057;28;20057;-43
2022/05/14 10:59:39;;;;;;;4.43;0.68;;;25.20;88.80;;;;;;4155296;28;20037;-43
2022/05/14 11:01:52;;;;;;;0.80;0.50;;;25.20;89.10;;;;;;4158723;28;20501;-44
2022/05/14 11:04:18;;;;;;;1.80;0.50;;;25.30;91.90;;;;;;4146237;28;20043;-44
2022/05/14 11:06:28;;;;;;;2.05;0.60;;;25.60;90.40;;;;;;4157182;28;20038;-43
2022/05/14 11:08:35;;;;;;;4.03;0.50;;;25.00;90.00;;;;;;4154752;28;20448;-44
2022/05/14 11:10:39;;;;;;;1.75;0.70;;;25.30;90.00;;;;;;4148707;28;20516;-44
2022/05/14 11:12:42;;;;;;;2.25;0.70;;;25.40;88.00;;;;;;4145859;28;20049;-43
2022/05/14 11:14:44;;;;;;;2.55;0.57;;;25.20;86.10;;;;;;4153931;28;20041;-44
2022/05/14 11:16:49;;;;;;;0.50;0.50;;;25.20;87.90;;;;;;4158755;28;20037;-44
2022/05/14 11:18:55;;;;;;;1.77;0.50;;;25.30;88.00;;;;;;4159376;28;20148;-46